createdAt,value
2019-03-20T00:00:16.291Z,8.88
2019-03-20T00:05:20.280Z,8.74
2019-03-20T00:10:24.255Z,8.76
2019-03-20T00:15:28.234Z,8.74
2019-03-20T00:20:32.274Z,8.69
2019-03-20T00:25:36.230Z,8.73
2019-03-20T00:30:40.194Z,8.79
2019-03-20T00:35:44.216Z,8.74
2019-03-20T00:40:48.189Z,8.76
2019-03-20T00:45:52.119Z,8.74
2019-03-20T00:50:56.084Z,8.64
2019-03-20T00:56:00.096Z,8.59
2019-03-20T01:01:04.022Z,8.57
2019-03-20T01:06:07.994Z,8.59
2019-03-20T01:11:11.990Z,8.50
2019-03-20T01:16:15.940Z,8.47
2019-03-20T01:21:19.939Z,8.31
2019-03-20T01:26:23.881Z,8.17
2019-03-20T01:31:27.931Z,8.24
2019-03-20T01:36:31.854Z,8.38
2019-03-20T01:41:38.159Z,8.34
2019-03-20T01:46:41.391Z,8.38
2019-03-20T01:51:45.326Z,8.32
2019-03-20T01:56:50.327Z,8.28
2019-03-20T02:01:54.304Z,8.20
2019-03-20T02:06:58.239Z,8.18
2019-03-20T02:12:02.259Z,8.07
2019-03-20T02:17:06.244Z,8.10
2019-03-20T02:22:10.164Z,7.97
2019-03-20T02:27:14.129Z,7.78
2019-03-20T02:32:18.247Z,7.71
2019-03-20T02:37:22.217Z,7.64
2019-03-20T02:42:26.190Z,7.74
2019-03-20T02:47:30.127Z,7.85
2019-03-20T02:52:34.091Z,7.92
2019-03-20T02:57:38.033Z,7.81
2019-03-20T03:02:41.986Z,7.91
2019-03-20T03:07:46.055Z,7.96
2019-03-20T03:12:49.960Z,8.04
2019-03-20T03:17:53.915Z,8.00
2019-03-20T03:22:57.832Z,7.93
2019-03-20T03:28:01.806Z,7.84
2019-03-20T03:33:05.765Z,7.83
2019-03-20T03:38:09.780Z,7.89
2019-03-20T03:43:13.681Z,7.86
2019-03-20T03:48:17.629Z,7.81
2019-03-20T03:53:21.544Z,7.77
2019-03-20T03:58:25.555Z,7.70
2019-03-20T04:03:29.602Z,7.68
2019-03-20T04:08:33.565Z,7.54
2019-03-20T04:13:37.541Z,7.53
2019-03-20T04:18:41.487Z,7.56
2019-03-20T04:23:45.426Z,7.49
2019-03-20T04:28:49.385Z,7.52
2019-03-20T04:33:53.353Z,7.62
2019-03-20T04:38:57.284Z,7.69
2019-03-20T04:44:01.187Z,7.66
2019-03-20T04:49:05.115Z,7.68
2019-03-20T04:54:09.010Z,7.63
2019-03-20T04:59:13.000Z,7.73
2019-03-20T05:04:16.990Z,7.90
2019-03-20T05:09:20.862Z,7.86
2019-03-20T05:14:24.889Z,7.89
2019-03-20T05:19:28.870Z,7.91
2019-03-20T05:24:32.836Z,7.77
2019-03-20T05:29:36.782Z,7.78
2019-03-20T05:34:40.694Z,7.83
2019-03-20T05:39:44.599Z,7.97
2019-03-20T05:44:48.566Z,7.75
2019-03-20T05:49:52.490Z,7.69
2019-03-20T05:54:56.460Z,7.80
2019-03-20T06:00:00.537Z,7.73
2019-03-20T06:05:04.858Z,7.77
2019-03-20T06:10:10.465Z,7.71
2019-03-20T06:15:14.672Z,7.80
2019-03-20T06:20:18.590Z,7.80
2019-03-20T06:25:22.507Z,7.92
2019-03-20T06:30:26.410Z,7.70
2019-03-20T06:35:30.391Z,7.60
2019-03-20T06:40:34.264Z,7.72
2019-03-20T06:45:38.265Z,7.75
2019-03-20T06:50:42.211Z,7.73
2019-03-20T06:55:46.140Z,7.67
2019-03-20T07:00:56.706Z,7.70
2019-03-20T07:06:22.329Z,7.61
2019-03-20T07:11:24.463Z,7.86
2019-03-20T07:16:28.384Z,7.88
2019-03-20T07:21:33.361Z,7.91
2019-03-20T07:26:37.301Z,8.02
2019-03-20T07:31:41.305Z,8.00
2019-03-20T07:36:45.335Z,8.01
2019-03-20T07:41:49.307Z,8.01
2019-03-20T07:46:53.203Z,8.28
2019-03-20T07:51:57.286Z,8.36
2019-03-20T07:57:01.250Z,8.35
2019-03-20T08:02:06.066Z,8.49
2019-03-20T08:07:11.980Z,8.42
2019-03-20T08:12:15.969Z,8.50
2019-03-20T08:17:22.656Z,8.54
2019-03-20T08:22:26.649Z,8.46
2019-03-20T08:27:30.590Z,8.53
2019-03-20T08:32:37.749Z,8.63
2019-03-20T08:37:41.784Z,8.48
2019-03-20T08:42:45.734Z,8.67
2019-03-20T08:47:49.754Z,8.71
2019-03-20T08:52:53.655Z,8.51
2019-03-20T08:57:57.657Z,8.61
2019-03-20T09:03:02.580Z,9.04
2019-03-20T09:08:06.594Z,9.19
2019-03-20T09:13:10.595Z,9.22
2019-03-20T09:18:14.595Z,9.35
2019-03-20T09:23:18.534Z,9.38
2019-03-20T09:28:22.450Z,9.41
2019-03-20T09:33:26.407Z,9.23
2019-03-20T09:38:30.409Z,9.09
2019-03-20T09:43:34.400Z,8.93
2019-03-20T09:48:38.402Z,8.84
2019-03-20T09:53:42.438Z,8.88
2019-03-20T09:58:46.512Z,8.86
2019-03-20T10:03:50.611Z,9.11
2019-03-20T10:08:54.717Z,9.08
2019-03-20T10:13:58.690Z,8.93
2019-03-20T10:19:02.710Z,9.16
2019-03-20T10:24:06.725Z,9.57
2019-03-20T10:29:10.761Z,9.30
2019-03-20T10:34:14.809Z,9.27
2019-03-20T10:39:18.753Z,9.32
2019-03-20T10:44:22.721Z,9.44
2019-03-20T10:49:26.780Z,9.53
2019-03-20T10:54:30.811Z,9.43
2019-03-20T10:59:34.775Z,9.40
2019-03-20T11:04:38.845Z,9.45
2019-03-20T11:09:42.919Z,9.35
2019-03-20T11:14:49.823Z,9.84
2019-03-20T11:19:56.210Z,9.64
2019-03-20T11:24:59.420Z,9.61
2019-03-20T11:30:04.451Z,9.82
2019-03-20T11:35:08.400Z,10.45
2019-03-20T11:40:16.226Z,10.38
2019-03-20T11:45:20.225Z,10.48
2019-03-20T11:50:26.856Z,10.61
2019-03-20T11:55:30.896Z,10.53
2019-03-20T12:00:34.996Z,11.31
2019-03-20T12:05:39.054Z,11.32
2019-03-20T12:10:45.057Z,11.46
2019-03-20T12:15:49.061Z,11.66
2019-03-20T12:20:53.130Z,11.62
2019-03-20T12:25:57.237Z,11.62
2019-03-20T12:31:01.206Z,11.54
2019-03-20T12:36:05.417Z,11.66
2019-03-20T12:41:09.637Z,11.66
2019-03-20T12:46:13.952Z,11.57
2019-03-20T12:51:17.981Z,11.41
2019-03-20T12:56:23.593Z,11.64
2019-03-20T13:01:27.715Z,11.48
2019-03-20T13:06:33.159Z,11.67
2019-03-20T13:11:37.156Z,11.92
2019-03-20T13:16:41.229Z,11.72
2019-03-20T13:21:48.475Z,11.88
2019-03-20T13:26:52.496Z,11.99
2019-03-20T13:31:56.475Z,12.09
2019-03-20T13:37:00.669Z,12.14
2019-03-20T13:42:04.875Z,11.60
2019-03-20T13:47:08.895Z,11.36
2019-03-20T13:52:12.981Z,11.17
2019-03-20T13:57:16.974Z,10.83
2019-03-20T14:02:20.968Z,10.67
2019-03-20T14:07:25.014Z,10.70
2019-03-20T14:12:28.978Z,10.47
2019-03-20T14:17:32.923Z,10.71
2019-03-20T14:22:36.914Z,10.78
2019-03-20T14:27:40.927Z,10.62
2019-03-20T14:32:45.038Z,10.85
2019-03-20T14:37:49.083Z,10.89
2019-03-20T14:42:53.138Z,10.94
2019-03-20T14:47:57.100Z,10.98
2019-03-20T14:53:01.170Z,10.82
2019-03-20T14:58:05.242Z,10.77
2019-03-20T15:03:10.606Z,10.49
2019-03-20T15:08:14.679Z,10.04
2019-03-20T15:13:18.862Z,10.10
2019-03-20T15:18:24.227Z,10.12
2019-03-20T15:23:28.118Z,9.94
2019-03-20T15:28:34.563Z,10.07
2019-03-20T15:33:38.546Z,10.09
2019-03-20T15:38:42.510Z,10.02
2019-03-20T15:43:46.485Z,10.15
2019-03-20T15:48:50.481Z,10.26
2019-03-20T15:53:54.513Z,10.18
2019-03-20T15:58:58.563Z,10.28
2019-03-20T16:04:03.413Z,10.35
2019-03-20T16:09:08.711Z,10.27
2019-03-20T16:14:12.693Z,9.96
2019-03-20T16:19:16.885Z,10.08
2019-03-20T16:24:20.908Z,9.97
2019-03-20T16:29:24.848Z,9.91
2019-03-20T16:34:28.938Z,9.94
2019-03-20T16:39:32.993Z,9.69
2019-03-20T16:44:36.937Z,9.63
2019-03-20T16:49:40.907Z,9.60
2019-03-20T16:54:44.857Z,9.72
2019-03-20T16:59:50.047Z,9.64
2019-03-20T17:04:54.089Z,9.59
2019-03-20T17:10:00.674Z,9.40
2019-03-20T17:15:07.667Z,9.26
2019-03-20T17:20:12.918Z,9.31
2019-03-20T17:25:16.917Z,9.26
2019-03-20T17:30:24.238Z,9.13
2019-03-20T17:35:28.347Z,9.24
2019-03-20T17:40:32.313Z,9.25
2019-03-20T17:45:36.589Z,9.31
2019-03-20T17:50:42.840Z,9.34
2019-03-20T17:55:47.733Z,9.38
2019-03-20T18:00:51.734Z,9.49
2019-03-20T18:05:55.708Z,9.54
2019-03-20T18:10:59.930Z,9.55
2019-03-20T18:16:04.354Z,9.71
2019-03-20T18:21:08.646Z,9.63
2019-03-20T18:26:12.754Z,9.63
2019-03-20T18:31:16.799Z,9.47
2019-03-20T18:36:21.094Z,9.57
2019-03-20T18:41:25.166Z,9.63
2019-03-20T18:46:29.518Z,9.67
2019-03-20T18:51:35.719Z,9.45
2019-03-20T18:56:39.791Z,9.63
2019-03-20T19:01:43.939Z,9.64
2019-03-20T19:06:48.006Z,9.37
2019-03-20T19:11:52.158Z,9.51
2019-03-20T19:16:56.173Z,9.49
2019-03-20T19:22:00.213Z,9.45
2019-03-20T19:27:04.580Z,9.28
2019-03-20T19:32:08.706Z,9.34
2019-03-20T19:37:12.813Z,9.41
2019-03-20T19:42:20.189Z,9.47
2019-03-20T19:47:22.663Z,9.43
2019-03-20T19:52:26.622Z,9.39
2019-03-20T19:57:30.861Z,9.45
2019-03-20T20:02:34.895Z,9.39
2019-03-20T20:07:38.966Z,9.42
2019-03-20T20:12:43.040Z,9.70
2019-03-20T20:17:47.259Z,9.71
2019-03-20T20:22:51.303Z,9.63
2019-03-20T20:27:55.279Z,9.48
2019-03-20T20:32:59.524Z,9.65
2019-03-20T20:38:03.564Z,9.75
2019-03-20T20:43:09.620Z,9.94
2019-03-20T20:48:13.660Z,10.00
2019-03-20T20:53:17.680Z,9.95
2019-03-20T20:58:21.854Z,9.88
2019-03-20T21:03:25.880Z,9.92
2019-03-20T21:08:29.926Z,9.89
2019-03-20T21:13:34.079Z,9.85
2019-03-20T21:19:10.000Z,9.61
2019-03-20T21:24:22.181Z,9.60
2019-03-20T21:29:48.580Z,9.52
2019-03-20T21:35:09.979Z,9.77
2019-03-20T21:40:16.238Z,9.82
2019-03-20T21:45:37.621Z,9.86
2019-03-20T21:51:07.340Z,9.91
2019-03-20T21:56:27.564Z,9.98
2019-03-20T22:01:46.187Z,10.00
2019-03-20T22:07:04.957Z,10.06
2019-03-20T22:12:19.870Z,9.94
2019-03-20T22:17:51.221Z,9.96
2019-03-20T22:23:09.566Z,9.84
2019-03-20T22:28:41.051Z,9.64
2019-03-20T22:34:03.003Z,9.52
2019-03-20T22:39:35.055Z,9.52
2019-03-20T22:44:50.967Z,9.52
2019-03-20T22:50:14.641Z,9.55
2019-03-20T22:55:31.481Z,9.53
2019-03-20T23:00:36.146Z,9.55
2019-03-20T23:05:40.740Z,9.58
2019-03-20T23:10:47.290Z,9.51
2019-03-20T23:15:52.321Z,9.48
2019-03-20T23:20:56.756Z,9.46
2019-03-20T23:26:01.254Z,9.44
2019-03-20T23:31:05.821Z,9.41
2019-03-20T23:36:10.627Z,9.39
2019-03-20T23:41:15.165Z,9.33
2019-03-20T23:46:19.680Z,9.30
2019-03-20T23:51:24.728Z,9.30
2019-03-20T23:56:31.147Z,9.29
